Date,TemperatureHighF,TemperatureAvgF,TemperatureLowF,DewpointHighF,DewpointAvgF,DewpointLowF,HumidityHigh,HumidityAvg,HumidityLow,PressureMaxIn,PressureMinIn,WindSpeedMaxMPH,WindSpeedAvgMPH,GustSpeedMaxMPH,PrecipitationSumIn
2012-1-1,51,46,39,-100,-100,-100,0,0,100,0.00,40.00,0,-999,0,0.00
2012-1-2,51,48,44,-100,-100,-100,0,0,100,0.00,40.00,0,-999,0,0.00
2012-1-3,48,45,43,-100,-100,-100,0,0,100,0.00,40.00,0,-999,0,0.00
2012-1-4,55,50,45,-100,-100,-100,0,0,100,0.00,40.00,0,-999,0,0.00
2012-1-5,50,42,38,-100,-100,-100,0,0,100,0.00,40.00,0,-999,0,0.00
2012-1-6,41,37,35,-100,-100,-100,0,0,100,0.00,40.00,0,-999,0,0.00
2012-1-7,39,37,34,-100,-100,-100,0,0,100,0.00,40.00,0,-999,0,0.00
2012-1-8,48,43,39,-100,-100,-100,0,0,100,0.00,40.00,0,-999,0,0.00
2012-1-9,47,44,42,-100,-100,-100,0,0,100,0.00,40.00,0,-999,0,0.00
2012-1-10,44,35,31,-100,-100,-100,0,0,100,0.00,40.00,0,-999,0,0.00
2012-1-11,45,32,27,-100,-100,-100,0,0,100,0.00,40.00,0,-999,0,0.00
2012-1-12,43,32,26,-100,-100,-100,0,0,100,0.00,40.00,0,-999,0,0.00
2012-1-13,37,32,26,-100,-100,-100,0,0,100,0.00,40.00,0,-999,0,0.00
2012-1-14,36,33,31,-100,-100,-100,0,0,100,0.00,40.00,0,-999,0,0.00
2012-1-15,35,31,25,-100,-100,-100,0,0,100,0.00,40.00,0,-999,0,0.00
2012-1-16,33,30,25,-100,-100,-100,0,0,100,0.00,40.00,0,-999,0,0.00
2012-1-17,33,31,25,-100,-100,-100,0,0,100,0.00,40.00,0,-999,0,0.00
2012-1-18,29,27,25,-100,-100,-100,0,0,100,0.00,40.00,0,-999,0,0.00
2012-1-19,29,26,24,-100,-100,-100,0,0,100,0.00,40.00,0,-999,0,0.00
2012-1-20,41,35,28,-100,-100,-100,0,0,100,0.00,40.00,0,-999,0,0.00
2012-1-21,43,38,35,-100,-100,-100,0,0,100,0.00,40.00,0,-999,0,0.00
2012-1-22,45,39,35,-100,-100,-100,0,0,100,0.00,40.00,0,-999,0,0.00
2012-1-23,48,38,34,-100,-100,-100,0,0,100,0.00,40.00,0,-999,0,0.00
2012-1-24,53,42,36,-100,-100,-100,0,0,100,0.00,40.00,0,-999,0,0.00
2012-1-25,43,39,37,-100,-100,-100,0,0,100,0.00,40.00,0,-999,0,0.00
2012-1-26,44,39,33,-100,-100,-100,0,0,100,0.00,40.00,0,-999,0,0.00
2012-1-27,46,35,31,-100,-100,-100,0,0,100,0.00,40.00,0,-999,0,0.00
2012-1-28,38,36,34,-100,-100,-100,0,0,100,0.00,40.00,0,-999,0,0.00
2012-1-29,47,44,41,-100,-100,-100,0,0,100,0.00,40.00,0,-999,0,0.00
2012-1-30,46,42,40,-100,-100,-100,0,0,100,0.00,40.00,0,-999,0,0.00
2012-1-31,47,42,40,-100,-100,-100,0,0,100,0.00,40.00,0,-999,0,0.00
2012-2-1,44,41,36,-100,-100,-100,0,0,100,0.00,40.00,0,-999,0,0.00
2012-2-2,47,38,34,-100,-100,-100,0,0,100,0.00,40.00,0,-999,0,0.00
2012-2-3,59,39,32,-100,-100,-100,0,0,100,0.00,40.00,0,-999,0,0.00
2012-2-4,61,43,33,-100,-100,-100,0,0,100,0.00,40.00,0,-999,0,0.00
2012-2-5,56,42,34,-100,-100,-100,0,0,100,0.00,40.00,0,-999,0,0.00
2012-2-6,63,46,32,-100,-100,-100,0,0,100,0.00,40.00,0,-999,0,0.00
2012-2-7,62,52,44,-100,-100,-100,0,0,100,0.00,40.00,0,-999,0,0.00
2012-2-8,45,44,42,-100,-100,-100,0,0,100,0.00,40.00,0,-999,0,0.00
2012-2-9,47,45,42,-100,-100,-100,0,0,100,0.00,40.00,0,-999,0,0.00
2012-2-10,54,49,45,-100,-100,-100,0,0,100,0.00,40.00,0,-999,0,0.00
2012-2-11,52,47,43,-100,-100,-100,0,0,100,0.00,40.00,0,-999,0,0.00
2012-2-12,50,44,40,-100,-100,-100,0,0,100,0.00,40.00,0,-999,0,0.00
2012-2-13,48,43,41,-100,-100,-100,0,0,100,0.00,40.00,0,-999,0,0.00
2012-2-14,44,40,34,-100,-100,-100,0,0,100,0.00,40.00,0,-999,0,0.00
2012-2-15,46,39,34,-100,-100,-100,0,0,100,0.00,40.00,0,-999,0,0.00
2012-2-16,42,39,34,-100,-100,-100,0,0,100,0.00,40.00,0,-999,0,0.00
2012-2-17,50,43,38,-100,-100,-100,0,0,100,0.00,40.00,0,-999,0,0.00
2012-2-18,43,39,35,-100,-100,-100,0,0,100,0.00,40.00,0,-999,0,0.00
2012-2-19,40,37,34,-100,-100,-100,0,0,100,0.00,40.00,0,-999,0,0.00
2012-2-20,46,39,33,-100,-100,-100,0,0,100,0.00,40.00,0,-999,0,0.00
2012-2-21,42,41,39,-100,-100,-100,0,0,100,0.00,40.00,0,-999,0,0.00
2012-2-22,45,44,42,-100,-100,-100,0,0,100,0.00,40.00,0,-999,0,0.00
2012-2-23,43,40,38,-100,-100,-100,0,0,100,0.00,40.00,0,-999,0,0.00
2012-2-24,41,38,37,-100,-100,-100,0,0,100,0.00,40.00,0,-999,0,0.00
2012-2-25,42,36,33,-100,-100,-100,0,0,100,0.00,40.00,0,-999,0,0.00
2012-2-26,47,35,29,-100,-100,-100,0,0,100,0.00,40.00,0,-999,0,0.00
2012-2-27,45,34,27,-100,-100,-100,0,0,100,0.00,40.00,0,-999,0,0.00
2012-2-28,43,36,30,-100,-100,-100,0,0,100,0.00,40.00,0,-999,0,0.00
2012-2-29,36,35,33,-100,-100,-100,0,0,100,0.00,40.00,0,-999,0,0.00
2012-3-1,39,34,32,-100,-100,-100,0,0,100,0.00,40.00,0,-999,0,0.00
2012-3-2,38,35,33,-100,-100,-100,0,0,100,0.00,40.00,0,-999,0,0.00
2012-3-3,42,39,36,-100,-100,-100,0,0,100,0.00,40.00,0,-999,0,0.00
2012-3-4,49,43,39,-100,-100,-100,0,0,100,0.00,40.00,0,-999,0,0.00
2012-3-5,47,40,32,-100,-100,-100,0,0,100,0.00,40.00,0,-999,0,0.00
2012-3-6,46,35,28,-100,-100,-100,0,0,100,0.00,40.00,0,-999,0,0.00
2012-3-7,47,36,28,-100,-100,-100,0,0,100,0.00,40.00,0,-999,0,0.00
2012-3-8,62,44,34,-100,-100,-100,0,0,100,0.00,40.00,0,-999,0,0.00
2012-3-9,50,43,36,-100,-100,-100,0,0,100,0.00,40.00,0,-999,0,0.00
2012-3-10,44,41,40,-100,-100,-100,0,0,100,0.00,40.00,0,-999,0,0.00
2012-3-11,45,42,39,-100,-100,-100,0,0,100,0.00,40.00,0,-999,0,0.00
2012-3-12,41,39,37,-100,-100,-100,0,0,100,0.00,40.00,0,-999,0,0.00
2012-3-13,42,38,34,-100,-100,-100,0,0,100,0.00,40.00,0,-999,0,0.00
2012-3-14,38,36,33,-100,-100,-100,0,0,100,0.00,40.00,0,-999,0,0.00
2012-3-15,53,45,37,-100,-100,-100,0,0,100,0.00,40.00,0,-999,0,0.00
2012-3-16,52,43,38,-100,-100,-100,0,0,100,0.00,40.00,0,-999,0,0.00
2012-3-17,47,41,36,-100,-100,-100,0,0,100,0.00,40.00,0,-999,0,0.00
2012-3-18,47,38,35,-100,-100,-100,0,0,100,0.00,40.00,0,-999,0,0.00
2012-3-19,48,39,31,-100,-100,-100,0,0,100,0.00,40.00,0,-999,0,0.00
2012-3-20,45,38,34,-100,-100,-100,0,0,100,0.00,40.00,0,-999,0,0.00
2012-3-21,52,42,34,-100,-100,-100,0,0,100,0.00,40.00,0,-999,0,0.00
2012-3-22,52,42,36,-100,-100,-100,0,0,100,0.00,40.00,0,-999,0,0.00
2012-3-23,57,43,30,-100,-100,-100,0,0,100,0.00,40.00,0,-999,0,0.00
2012-3-24,62,46,36,-100,-100,-100,0,0,100,0.00,40.00,0,-999,0,0.00
2012-3-25,61,47,36,-100,-100,-100,0,0,100,0.00,40.00,0,-999,0,0.00
2012-3-26,55,46,40,-100,-100,-100,0,0,100,0.00,40.00,0,-999,0,0.00
2012-3-27,60,49,40,-100,-100,-100,0,0,100,0.00,40.00,0,-999,0,0.00
2012-3-28,50,47,42,-100,-100,-100,0,0,100,0.00,40.00,0,-999,0,0.00
2012-3-29,46,44,41,-100,-100,-100,0,0,100,0.00,40.00,0,-999,0,0.00
2012-3-30,47,43,38,-100,-100,-100,0,0,100,0.00,40.00,0,-999,0,0.00
2012-3-31,44,40,37,-100,-100,-100,0,0,100,0.00,40.00,0,-999,0,0.00
2012-4-1,44,41,39,-100,-100,-100,0,0,100,0.00,40.00,0,-999,0,0.00
2012-4-2,59,47,38,-100,-100,-100,0,0,100,0.00,40.00,0,-999,0,0.00
2012-4-3,53,47,40,-100,-100,-100,0,0,100,0.00,40.00,0,-999,0,0.00
2012-4-4,54,43,38,-100,-100,-100,0,0,100,0.00,40.00,0,-999,0,0.00
2012-4-5,48,40,32,-100,-100,-100,0,0,100,0.00,40.00,0,-999,0,0.00
2012-4-6,53,43,38,-100,-100,-100,0,0,100,0.00,40.00,0,-999,0,0.00
2012-4-7,63,46,32,-100,-100,-100,0,0,100,0.00,40.00,0,-999,0,0.00
2012-4-8,73,54,40,-100,-100,-100,0,0,100,0.00,40.00,0,-999,0,0.00
2012-4-9,73,56,41,-100,-100,-100,0,0,100,0.00,40.00,0,-999,0,0.00
2012-4-10,74,57,44,-100,-100,-100,0,0,100,0.00,40.00,0,-999,0,0.00
2012-4-11,51,47,39,-100,-100,-100,0,0,100,0.00,40.00,0,-999,0,0.00
2012-4-12,61,48,43,-100,-100,-100,0,0,100,0.00,40.00,0,-999,0,0.00
2012-4-13,62,49,36,-100,-100,-100,0,0,100,0.00,40.00,0,-999,0,0.00
2012-4-14,62,48,36,-100,-100,-100,0,0,100,0.00,40.00,0,-999,0,0.00
2012-4-15,63,48,39,-100,-100,-100,0,0,100,0.00,40.00,0,-999,0,0.00
2012-4-16,52,46,43,-100,-100,-100,0,0,100,0.00,40.00,0,-999,0,0.00
2012-4-17,50,45,40,-100,-100,-100,0,0,100,0.00,40.00,0,-999,0,0.00
2012-4-18,56,46,42,-100,-100,-100,0,0,100,0.00,40.00,0,-999,0,0.00
2012-4-19,56,47,37,-100,-100,-100,0,0,100,0.00,40.00,0,-999,0,0.00
2012-4-20,57,49,44,-100,-100,-100,0,0,100,0.00,40.00,0,-999,0,0.00
2012-4-21,66,51,38,-100,-100,-100,0,0,100,0.00,40.00,0,-999,0,0.00
2012-4-22,79,59,44,-100,-100,-100,0,0,100,0.00,40.00,0,-999,0,0.00
2012-4-23,76,60,43,-100,-100,-100,0,0,100,0.00,40.00,0,-999,0,0.00
2012-4-24,53,51,50,-100,-100,-100,0,0,100,0.00,40.00,0,-999,0,0.00
2012-4-25,57,54,50,-100,-100,-100,0,0,100,0.00,40.00,0,-999,0,0.00
2012-4-26,52,48,44,-100,-100,-100,0,0,100,0.00,40.00,0,-999,0,0.00
2012-4-27,58,49,43,-100,-100,-100,0,0,100,0.00,40.00,0,-999,0,0.00
2012-4-28,65,54,44,-100,-100,-100,0,0,100,0.00,40.00,0,-999,0,0.00
2012-4-29,61,54,49,-100,-100,-100,0,0,100,0.00,40.00,0,-999,0,0.00
2012-4-30,56,48,44,-100,-100,-100,0,0,100,0.00,40.00,0,-999,0,0.00
2012-5-1,48,44,41,-100,-100,-100,0,0,100,0.00,40.00,0,-999,0,0.00
2012-5-2,56,47,40,-100,-100,-100,0,0,100,0.00,40.00,0,-999,0,0.00
2012-5-3,57,48,43,-100,-100,-100,0,0,100,0.00,40.00,0,-999,0,0.00
2012-5-4,51,45,41,-100,-100,-100,0,0,100,0.00,40.00,0,-999,0,0.00
2012-5-5,55,46,41,-100,-100,-100,0,0,100,0.00,40.00,0,-999,0,0.00
2012-5-6,67,52,36,-100,-100,-100,0,0,100,0.00,40.00,0,-999,0,0.00
2012-5-7,78,59,41,-100,-100,-100,0,0,100,0.00,40.00,0,-999,0,0.00
2012-5-8,69,55,44,-100,-100,-100,0,0,100,0.00,40.00,0,-999,0,0.00
2012-5-9,60,50,43,-100,-100,-100,0,0,100,0.00,40.00,0,-999,0,0.00
2012-5-10,56,47,41,-100,-100,-100,0,0,100,0.00,40.00,0,-999,0,0.00
2012-5-11,70,52,35,-100,-100,-100,0,0,100,0.00,40.00,0,-999,0,0.00
2012-5-12,80,56,38,-100,-100,-100,0,0,100,0.00,40.00,0,-999,0,0.00
2012-5-13,84,62,42,-100,-100,-100,0,0,100,0.00,40.00,0,-999,0,0.00
2012-5-14,84,64,44,-100,-100,-100,0,0,100,0.00,40.00,0,-999,0,0.00
2012-5-15,79,62,44,-100,-100,-100,0,0,100,0.00,40.00,0,-999,0,0.00
2012-5-16,70,56,40,-100,-100,-100,0,0,100,0.00,40.00,0,-999,0,0.00
2012-5-17,68,52,37,-100,-100,-100,0,0,100,0.00,40.00,0,-999,0,0.00
2012-5-18,64,51,42,-100,-100,-100,0,0,100,0.00,40.00,0,-999,0,0.00
2012-5-19,70,54,37,-100,-100,-100,0,0,100,0.00,40.00,0,-999,0,0.00
2012-5-20,60,54,50,-100,-100,-100,0,0,100,0.00,40.00,0,-999,0,0.00
2012-5-21,58,55,52,-100,-100,-100,0,0,100,0.00,40.00,0,-999,0,0.00
2012-5-22,56,52,49,-100,-100,-100,0,0,100,0.00,40.00,0,-999,0,0.00
2012-5-23,53,49,46,-100,-100,-100,0,0,100,0.00,40.00,0,-999,0,0.00
2012-5-24,65,54,45,-100,-100,-100,0,0,100,0.00,40.00,0,-999,0,0.00
2012-5-25,75,57,42,-100,-100,-100,0,0,100,0.00,40.00,0,-999,0,0.00
2012-5-26,78,62,47,-100,-100,-100,0,0,100,0.00,40.00,0,-999,0,0.00
2012-5-27,63,57,49,-100,-100,-100,0,0,100,0.00,40.00,0,-999,0,0.00
2012-5-28,56,53,50,-100,-100,-100,0,0,100,0.00,40.00,0,-999,0,0.00
2012-5-29,62,53,43,-100,-100,-100,0,0,100,0.00,40.00,0,-999,0,0.00
2012-5-30,68,57,47,-100,-100,-100,0,0,100,0.00,40.00,0,-999,0,0.00
2012-5-31,61,56,53,-100,-100,-100,0,0,100,0.00,40.00,0,-999,0,0.00
2012-6-1,68,59,54,-100,-100,-100,0,0,100,0.00,40.00,0,-999,0,0.00
2012-6-2,61,55,50,-100,-100,-100,0,0,100,0.00,40.00,0,-999,0,0.00
2012-6-3,60,53,46,-100,-100,-100,0,0,100,0.00,40.00,0,-999,0,0.00
2012-6-4,56,51,47,-100,-100,-100,0,0,100,0.00,40.00,0,-999,0,0.00
2012-6-5,54,50,48,-100,-100,-100,0,0,100,0.00,40.00,0,-999,0,0.00
2012-6-6,60,51,45,-100,-100,-100,0,0,100,0.00,40.00,0,-999,0,0.00
2012-6-7,56,50,47,-100,-100,-100,0,0,100,0.00,40.00,0,-999,0,0.00
2012-6-8,62,51,46,-100,-100,-100,0,0,100,0.00,40.00,0,-999,0,0.00
2012-6-9,59,51,46,-100,-100,-100,0,0,100,0.00,40.00,0,-999,0,0.00
2012-6-10,68,56,48,-100,-100,-100,0,0,100,0.00,40.00,0,-999,0,0.00
2012-6-11,77,60,44,-100,-100,-100,0,0,100,0.00,40.00,0,-999,0,0.00
2012-6-12,69,58,54,-100,-100,-100,0,0,100,0.00,40.00,0,-999,0,0.00
2012-6-13,58,54,50,-100,-100,-100,0,0,100,0.00,40.00,0,-999,0,0.00
2012-6-14,59,52,48,-100,-100,-100,0,0,100,0.00,40.00,0,-999,0,0.00
2012-6-15,74,58,41,-100,-100,-100,0,0,100,0.00,40.00,0,-999,0,0.00
2012-6-16,63,59,56,-100,-100,-100,0,0,100,0.00,40.00,0,-999,0,0.00
2012-6-17,62,57,52,-100,-100,-100,0,0,100,0.00,40.00,0,-999,0,0.00
2012-6-18,57,53,49,-100,-100,-100,0,0,100,0.00,40.00,0,-999,0,0.00
2012-6-19,68,56,49,-100,-100,-100,0,0,100,0.00,40.00,0,-999,0,0.00
2012-6-20,79,68,62,-100,-100,-100,0,0,100,0.00,40.00,0,-999,0,0.00
2012-6-21,76,63,50,-100,-100,-100,0,0,100,0.00,40.00,0,-999,0,0.00
2012-6-22,60,53,48,-100,-100,-100,0,0,100,0.00,40.00,0,-999,0,0.00
2012-6-23,69,55,52,-100,-100,-100,0,0,100,0.00,40.00,0,-999,0,0.00
2012-6-24,67,54,47,-100,-100,-100,0,0,100,0.00,40.00,0,-999,0,0.00
2012-6-25,69,57,43,-100,-100,-100,0,0,100,0.00,40.00,0,-999,0,0.00
2012-6-26,55,52,50,-100,-100,-100,0,0,100,0.00,40.00,0,-999,0,0.00
2012-6-27,78,61,49,-100,-100,-100,0,0,100,0.00,40.00,0,-999,0,0.00
2012-6-28,81,64,50,-100,-100,-100,0,0,100,0.00,40.00,0,-999,0,0.00
2012-6-29,81,64,57,-100,-100,-100,0,0,100,0.00,40.00,0,-999,0,0.00
2012-6-30,71,62,58,-100,-100,-100,0,0,100,0.00,40.00,0,-999,0,0.00
2012-7-1,65,58,53,-100,-100,-100,0,0,100,0.00,40.00,0,-999,0,0.00
2012-7-2,63,56,50,-100,-100,-100,0,0,100,0.00,40.00,0,-999,0,0.00
2012-7-3,60,55,52,-100,-100,-100,0,0,100,0.00,40.00,0,-999,0,0.00
2012-7-4,72,60,49,-100,-100,-100,0,0,100,0.00,40.00,0,-999,0,0.00
2012-7-5,78,62,46,-100,-100,-100,0,0,100,0.00,40.00,0,-999,0,0.00
2012-7-6,82,64,46,-100,-100,-100,0,0,100,0.00,40.00,0,-999,0,0.00
2012-7-7,84,66,47,-100,-100,-100,0,0,100,0.00,40.00,0,-999,0,0.00
2012-7-8,85,68,51,-100,-100,-100,0,0,100,0.00,40.00,0,-999,0,0.00
2012-7-9,80,67,57,-100,-100,-100,0,0,100,0.00,40.00,0,-999,0,0.00
2012-7-10,76,62,50,-100,-100,-100,0,0,100,0.00,40.00,0,-999,0,0.00
2012-7-11,81,66,50,-100,-100,-100,0,0,100,0.00,40.00,0,-999,0,0.00
2012-7-12,82,66,54,-100,-100,-100,0,0,100,0.00,40.00,0,-999,0,0.00
2012-7-13,71,63,54,-100,-100,-100,0,0,100,0.00,40.00,0,-999,0,0.00
2012-7-14,76,67,58,-100,-100,-100,0,0,100,0.00,40.00,0,-999,0,0.00
2012-7-15,67,63,58,-100,-100,-100,0,0,100,0.00,40.00,0,-999,0,0.00
2012-7-16,82,67,54,-100,-100,-100,0,0,100,0.00,40.00,0,-999,0,0.00
2012-7-17,81,68,58,-100,-100,-100,0,0,100,0.00,40.00,0,-999,0,0.00
2012-7-18,76,66,60,-100,-100,-100,0,0,100,0.00,40.00,0,-999,0,0.00
2012-7-19,83,70,59,-100,-100,-100,0,0,100,0.00,40.00,0,-999,0,0.00
2012-7-20,65,62,60,-100,-100,-100,0,0,100,0.00,40.00,0,-999,0,0.00
2012-7-21,77,66,58,-100,-100,-100,0,0,100,0.00,40.00,0,-999,0,0.00
2012-7-22,68,58,53,-100,-100,-100,0,0,100,0.00,40.00,0,-999,0,0.00
2012-7-23,61,56,52,-100,-100,-100,0,0,100,0.00,40.00,0,-999,0,0.00
2012-7-24,77,64,52,-100,-100,-100,0,0,100,0.00,40.00,0,-999,0,0.00
2012-7-25,83,67,51,-100,-100,-100,0,0,100,0.00,40.00,0,-999,0,0.00
2012-7-26,82,69,55,-100,-100,-100,0,0,100,0.00,40.00,0,-999,0,0.00
2012-7-27,66,60,55,-100,-100,-100,0,0,100,0.00,40.00,0,-999,0,0.00
2012-7-28,76,63,53,-100,-100,-100,0,0,100,0.00,40.00,0,-999,0,0.00
2012-7-29,79,64,52,-100,-100,-100,0,0,100,0.00,40.00,0,-999,0,0.00
2012-7-30,70,60,51,-100,-100,-100,0,0,100,0.00,40.00,0,-999,0,0.00
2012-7-31,76,63,55,-100,-100,-100,0,0,100,0.00,40.00,0,-999,0,0.00
2012-8-1,78,62,47,-100,-100,-100,0,0,100,0.00,40.00,0,-999,0,0.00
2012-8-2,75,61,50,-100,-100,-100,0,0,100,0.00,40.00,0,-999,0,0.00
2012-8-3,84,65,49,-100,-100,-100,0,0,100,0.00,40.00,0,-999,0,0.00
2012-8-4,94,73,56,-100,-100,-100,0,0,100,0.00,40.00,0,-999,0,0.00
2012-8-5,95,74,58,-100,-100,-100,0,0,100,0.00,40.00,0,-999,0,0.00
2012-8-6,75,68,62,-100,-100,-100,0,0,100,0.00,40.00,0,-999,0,0.00
2012-8-7,72,64,58,-100,-100,-100,0,0,100,0.00,40.00,0,-999,0,0.00
2012-8-8,72,64,60,-100,-100,-100,0,0,100,0.00,40.00,0,-999,0,0.00
2012-8-9,75,62,48,-100,-100,-100,0,0,100,0.00,40.00,0,-999,0,0.00
2012-8-10,80,64,49,-100,-100,-100,0,0,100,0.00,40.00,0,-999,0,0.00
2012-8-11,86,63,50,-100,-100,-100,0,0,100,0.00,40.00,0,-999,0,0.00
2012-8-12,89,69,53,-100,-100,-100,0,0,100,0.00,40.00,0,-999,0,0.00
2012-8-13,86,67,53,-100,-100,-100,0,0,100,0.00,40.00,0,-999,0,0.00
2012-8-14,81,65,49,-100,-100,-100,0,0,100,0.00,40.00,0,-999,0,0.00
2012-8-15,93,68,52,-100,-100,-100,0,0,100,0.00,40.00,0,-999,0,0.00
2012-8-16,96,73,54,-100,-100,-100,0,0,100,0.00,40.00,0,-999,0,0.00
2012-8-17,93,73,54,-100,-100,-100,0,0,100,0.00,40.00,0,-999,0,0.00
2012-8-18,81,67,55,-100,-100,-100,0,0,100,0.00,40.00,0,-999,0,0.00
2012-8-19,69,64,61,-100,-100,-100,0,0,100,0.00,40.00,0,-999,0,0.00
2012-8-20,80,66,57,-100,-100,-100,0,0,100,0.00,40.00,0,-999,0,0.00
2012-8-21,74,61,50,-100,-100,-100,0,0,100,0.00,40.00,0,-999,0,0.00
2012-8-22,74,62,54,-100,-100,-100,0,0,100,0.00,40.00,0,-999,0,0.00
2012-8-23,71,57,49,-100,-100,-100,0,0,100,0.00,40.00,0,-999,0,0.00
2012-8-24,75,61,50,-100,-100,-100,0,0,100,0.00,40.00,0,-999,0,0.00
2012-8-25,84,66,47,-100,-100,-100,0,0,100,0.00,40.00,0,-999,0,0.00
2012-8-26,81,62,46,-100,-100,-100,0,0,100,0.00,40.00,0,-999,0,0.00
2012-8-27,79,67,52,-100,-100,-100,0,0,100,0.00,40.00,0,-999,0,0.00
2012-8-28,74,60,50,-100,-100,-100,0,0,100,0.00,40.00,0,-999,0,0.00
2012-8-29,70,61,54,-100,-100,-100,0,0,100,0.00,40.00,0,-999,0,0.00
2012-8-30,75,63,53,-100,-100,-100,0,0,100,0.00,40.00,0,-999,0,0.00
2012-8-31,74,58,43,-100,-100,-100,0,0,100,0.00,40.00,0,-999,0,0.00
2012-9-1,78,60,43,-100,-100,-100,0,0,100,0.00,40.00,0,-999,0,0.00
2012-9-2,75,60,45,-100,-100,-100,0,0,100,0.00,40.00,0,-999,0,0.00
2012-9-3,75,59,43,-100,-100,-100,0,0,100,0.00,40.00,0,-999,0,0.00
2012-9-4,81,62,46,-100,-100,-100,0,0,100,0.00,40.00,0,-999,0,0.00
2012-9-5,82,64,48,-100,-100,-100,0,0,100,0.00,40.00,0,-999,0,0.00
2012-9-6,86,66,46,-100,-100,-100,0,0,100,0.00,40.00,0,-999,0,0.00
2012-9-7,93,69,47,-100,-100,-100,0,0,100,0.00,40.00,0,-999,0,0.00
2012-9-8,90,69,50,-100,-100,-100,0,0,100,0.00,40.00,0,-999,0,0.00
2012-9-9,67,62,59,-100,-100,-100,0,0,100,0.00,40.00,0,-999,0,0.00
2012-9-10,60,54,47,-100,-100,-100,0,0,100,0.00,40.00,0,-999,0,0.00
2012-9-11,70,56,42,-100,-100,-100,0,0,100,0.00,40.00,0,-999,0,0.00
2012-9-12,75,52,40,-100,-100,-100,0,0,100,0.00,40.00,0,-999,0,0.00
2012-9-13,87,59,42,-100,-100,-100,0,0,100,0.00,40.00,0,-999,0,0.00
2012-9-14,83,62,45,-100,-100,-100,0,0,100,0.00,40.00,0,-999,0,0.00
2012-9-15,79,58,45,-100,-100,-100,0,0,100,0.00,40.00,0,-999,0,0.00
2012-9-16,81,58,44,-100,-100,-100,0,0,100,0.00,40.00,0,-999,0,0.00
2012-9-17,86,61,44,-100,-100,-100,0,0,100,0.00,40.00,0,-999,0,0.00
2012-9-18,85,62,48,-100,-100,-100,0,0,100,0.00,40.00,0,-999,0,0.00
2012-9-19,80,62,45,-100,-100,-100,0,0,100,0.00,40.00,0,-999,0,0.00
2012-9-20,80,60,44,-100,-100,-100,0,0,100,0.00,40.00,0,-999,0,0.00
2012-9-21,62,56,50,-100,-100,-100,0,0,100,0.00,40.00,0,-999,0,0.00
2012-9-22,62,57,50,-100,-100,-100,0,0,100,0.00,40.00,0,-999,0,0.00
2012-9-23,74,56,45,-100,-100,-100,0,0,100,0.00,40.00,0,-999,0,0.00
2012-9-24,73,57,44,-100,-100,-100,0,0,100,0.00,40.00,0,-999,0,0.00
2012-9-25,67,57,49,-100,-100,-100,0,0,100,0.00,40.00,0,-999,0,0.00
2012-9-26,74,54,41,-100,-100,-100,0,0,100,0.00,40.00,0,-999,0,0.00
2012-9-27,76,57,45,-100,-100,-100,0,0,100,0.00,40.00,0,-999,0,0.00
2012-9-28,68,56,50,-100,-100,-100,0,0,100,0.00,40.00,0,-999,0,0.00
2012-9-29,69,58,47,-100,-100,-100,0,0,100,0.00,40.00,0,-999,0,0.00
2012-9-30,72,52,37,-100,-100,-100,0,0,100,0.00,40.00,0,-999,0,0.00
2012-10-1,76,57,42,-100,-100,-100,0,0,100,0.00,40.00,0,-999,0,0.00
2012-10-2,70,52,40,-100,-100,-100,0,0,100,0.00,40.00,0,-999,0,0.00
2012-10-3,71,50,39,-100,-100,-100,0,0,100,0.00,40.00,0,-999,0,0.00
2012-10-4,71,50,36,-100,-100,-100,0,0,100,0.00,40.00,0,-999,0,0.00
2012-10-5,76,48,39,-100,-100,-100,0,0,100,0.00,40.00,0,-999,0,0.00
2012-10-6,77,52,39,-100,-100,-100,0,0,100,0.00,40.00,0,-999,0,0.00
2012-10-7,79,54,36,-100,-100,-100,0,0,100,0.00,40.00,0,-999,0,0.00
2012-10-8,75,53,38,-100,-100,-100,0,0,100,0.00,40.00,0,-999,0,0.00
2012-10-9,58,46,38,-100,-100,-100,0,0,100,0.00,40.00,0,-999,0,0.00
2012-10-10,53,47,39,-100,-100,-100,0,0,100,0.00,40.00,0,-999,0,0.00
2012-10-11,64,52,43,-100,-100,-100,0,0,100,0.00,40.00,0,-999,0,0.00
2012-10-12,55,49,40,-100,-100,-100,0,0,100,0.00,40.00,0,-999,0,0.00
2012-10-13,61,57,53,-100,-100,-100,0,0,100,0.00,40.00,0,-999,0,0.00
2012-10-14,61,59,57,-100,-100,-100,0,0,100,0.00,40.00,0,-999,0,0.00
2012-10-15,64,56,51,-100,-100,-100,0,0,100,0.00,40.00,0,-999,0,0.00
2012-10-16,56,51,47,-100,-100,-100,0,0,100,0.00,40.00,0,-999,0,0.00
2012-10-17,59,50,46,-100,-100,-100,0,0,100,0.00,40.00,0,-999,0,0.00
2012-10-18,56,52,49,-100,-100,-100,0,0,100,0.00,40.00,0,-999,0,0.00
2012-10-19,62,52,44,-100,-100,-100,0,0,100,0.00,40.00,0,-999,0,0.00
2012-10-20,45,43,41,-100,-100,-100,0,0,100,0.00,40.00,0,-999,0,0.00
2012-10-21,52,43,38,-100,-100,-100,0,0,100,0.00,40.00,0,-999,0,0.00
2012-10-22,45,40,37,-100,-100,-100,0,0,100,0.00,40.00,0,-999,0,0.00
2012-10-23,49,43,40,-100,-100,-100,0,0,100,0.00,40.00,0,-999,0,0.00
2012-10-24,49,42,39,-100,-100,-100,0,0,100,0.00,40.00,0,-999,0,0.00
2012-10-25,51,44,40,-100,-100,-100,0,0,100,0.00,40.00,0,-999,0,0.00
2012-10-26,44,43,42,-100,-100,-100,0,0,100,0.00,40.00,0,-999,0,0.00
2012-10-27,49,46,43,-100,-100,-100,0,0,100,0.00,40.00,0,-999,0,0.00
2012-10-28,61,53,48,-100,-100,-100,0,0,100,0.00,40.00,0,-999,0,0.00
2012-10-29,63,56,49,-100,-100,-100,0,0,100,0.00,40.00,0,-999,0,0.00
2012-10-30,53,52,51,-100,-100,-100,0,0,100,0.00,40.00,0,-999,0,0.00
2012-10-31,56,54,52,-100,-100,-100,0,0,100,0.00,40.00,0,-999,0,0.00
2012-11-1,54,52,50,-100,-100,-100,0,0,100,0.00,40.00,0,-999,0,0.00
2012-11-2,59,53,50,-100,-100,-100,0,0,100,0.00,40.00,0,-999,0,0.00
2012-11-3,58,53,50,-100,-100,-100,0,0,100,0.00,40.00,0,-999,0,0.00
2012-11-4,64,56,52,-100,-100,-100,0,0,100,0.00,40.00,0,-999,0,0.00
2012-11-5,57,51,46,-100,-100,-100,0,0,100,0.00,40.00,0,-999,0,0.00
2012-11-6,56,50,45,-100,-100,-100,0,0,100,0.00,40.00,0,-999,0,0.00
2012-11-7,49,43,37,-100,-100,-100,0,0,100,0.00,40.00,0,-999,0,0.00
2012-11-8,53,38,32,-100,-100,-100,0,0,100,0.00,40.00,0,-999,0,0.00
2012-11-9,45,34,28,-100,-100,-100,0,0,100,0.00,40.00,0,-999,0,0.00
2012-11-10,45,33,29,-100,-100,-100,0,0,100,0.00,40.00,0,-999,0,0.00
2012-11-11,39,35,29,-100,-100,-100,0,0,100,0.00,40.00,0,-999,0,0.00
2012-11-12,45,43,40,-100,-100,-100,0,0,100,0.00,40.00,0,-999,0,0.00
2012-11-13,46,44,43,-100,-100,-100,0,0,100,0.00,40.00,0,-999,0,0.00
2012-11-14,50,44,38,-100,-100,-100,0,0,100,0.00,40.00,0,-999,0,0.00
2012-11-15,55,41,36,-100,-100,-100,0,0,100,0.00,40.00,0,-999,0,0.00
2012-11-16,43,39,31,-100,-100,-100,0,0,100,0.00,40.00,0,-999,0,0.00
2012-11-17,52,46,44,-100,-100,-100,0,0,100,0.00,40.00,0,-999,0,0.00
2012-11-18,45,44,42,-100,-100,-100,0,0,100,0.00,40.00,0,-999,0,0.00
2012-11-19,55,49,44,-100,-100,-100,0,0,100,0.00,40.00,0,-999,0,0.00
2012-11-20,49,46,43,-100,-100,-100,0,0,100,0.00,40.00,0,-999,0,0.00
2012-11-21,45,42,40,-100,-100,-100,0,0,100,0.00,40.00,0,-999,0,0.00
2012-11-22,44,40,35,-100,-100,-100,0,0,100,0.00,40.00,0,-999,0,0.00
2012-11-23,44,43,42,-100,-100,-100,0,0,100,0.00,40.00,0,-999,0,0.00
2012-11-24,48,41,37,-100,-100,-100,0,0,100,0.00,40.00,0,-999,0,0.00
2012-11-25,48,39,35,-100,-100,-100,0,0,100,0.00,40.00,0,-999,0,0.00
2012-11-26,35,34,33,-100,-100,-100,0,0,100,0.00,40.00,0,-999,0,0.00
2012-11-27,46,39,33,-100,-100,-100,0,0,100,0.00,40.00,0,-999,0,0.00
2012-11-28,47,42,35,-100,-100,-100,0,0,100,0.00,40.00,0,-999,0,0.00
2012-11-29,48,47,46,-100,-100,-100,0,0,100,0.00,40.00,0,-999,0,0.00
2012-11-30,48,46,45,-100,-100,-100,0,0,100,0.00,40.00,0,-999,0,0.00
2012-12-1,51,46,43,-100,-100,-100,0,0,100,0.00,40.00,0,-999,0,0.00
2012-12-2,49,45,43,-100,-100,-100,0,0,100,0.00,40.00,0,-999,0,0.00
2012-12-3,47,45,43,-100,-100,-100,0,0,100,0.00,40.00,0,-999,0,0.00
2012-12-4,56,49,43,-100,-100,-100,0,0,100,0.00,40.00,0,-999,0,0.00
2012-12-5,44,40,36,-100,-100,-100,0,0,100,0.00,40.00,0,-999,0,0.00
2012-12-6,42,39,38,-100,-100,-100,0,0,100,0.00,40.00,0,-999,0,0.00
2012-12-7,42,39,34,-100,-100,-100,0,0,100,0.00,40.00,0,-999,0,0.00
2012-12-8,34,33,32,-100,-100,-100,0,0,100,0.00,40.00,0,-999,0,0.00
2012-12-9,36,35,34,-100,-100,-100,0,0,100,0.00,40.00,0,-999,0,0.00
2012-12-10,40,40,39,-100,-100,-100,0,0,100,0.00,40.00,0,-999,0,0.00
2012-12-11,38,37,36,-100,-100,-100,0,0,100,0.00,40.00,0,-999,0,0.00
2012-12-12,42,39,37,-100,-100,-100,0,0,100,0.00,40.00,0,-999,0,0.00
2012-12-13,42,38,37,-100,-100,-100,0,0,100,0.00,40.00,0,-999,0,0.00
2012-12-14,40,35,33,-100,-100,-100,0,0,100,0.00,40.00,0,-999,0,0.00
2012-12-15,36,33,31,-100,-100,-100,0,0,100,0.00,40.00,0,-999,0,0.00
2012-12-16,38,35,32,-100,-100,-100,0,0,100,0.00,40.00,0,-999,0,0.00
2012-12-17,40,36,33,-100,-100,-100,0,0,100,0.00,40.00,0,-999,0,0.00
2012-12-18,36,33,32,-100,-100,-100,0,0,100,0.00,40.00,0,-999,0,0.00
2012-12-19,37,35,33,-100,-100,-100,0,0,100,0.00,40.00,0,-999,0,0.00
2012-12-20,39,38,34,-100,-100,-100,0,0,100,0.00,40.00,0,-999,0,0.00
2012-12-21,38,36,33,-100,-100,-100,0,0,100,0.00,40.00,0,-999,0,0.00
2012-12-22,40,38,36,-100,-100,-100,0,0,100,0.00,40.00,0,-999,0,0.00
2012-12-23,43,39,37,-100,-100,-100,0,0,100,0.00,40.00,0,-999,0,0.00
2012-12-24,42,38,34,-100,-100,-100,0,0,100,0.00,40.00,0,-999,0,0.00
2012-12-25,43,38,35,-100,-100,-100,0,0,100,0.00,40.00,0,-999,0,0.00
2012-12-26,41,38,36,-100,-100,-100,0,0,100,0.00,40.00,0,-999,0,0.00
2012-12-27,42,39,38,-100,-100,-100,0,0,100,0.00,40.00,0,-999,0,0.00
2012-12-28,42,38,34,-100,-100,-100,0,0,100,0.00,40.00,0,-999,0,0.00
2012-12-29,38,37,35,-100,-100,-100,0,0,100,0.00,40.00,0,-999,0,0.00
2012-12-30,42,33,30,-100,-100,-100,0,0,100,0.00,40.00,0,-999,0,0.00
2012-12-31,36,31,28,-100,-100,-100,0,0,100,0.00,40.00,0,-999,0,0.00
2013-1-1,40,31,26,-100,-100,-100,0,0,100,0.00,40.00,0,-999,0,0.00